sensor_id;sensor_type;location;lat;lon;timestamp;pressure;altitude;pressure_sealevel;temperature;humidity
5238;BME280;2639;49.700;7.962;2022-12-24T04:01:18;98364.50;;;10.10;100.00
5238;BME280;2639;49.700;7.962;2022-12-24T04:04:33;98373.91;;;10.10;100.00
5238;BME280;2639;49.700;7.962;2022-12-24T04:07:44;98374.09;;;10.13;100.00
5238;BME280;2639;49.700;7.962;2022-12-24T04:10:55;98375.09;;;10.15;100.00
5238;BME280;2639;49.700;7.962;2022-12-24T04:14:05;98376.78;;;10.15;100.00
5238;BME280;2639;49.700;7.962;2022-12-24T04:17:16;98374.09;;;10.13;100.00
5238;BME280;2639;49.700;7.962;2022-12-24T04:20:27;98377.66;;;10.15;100.00
5238;BME280;2639;49.700;7.962;2022-12-24T04:23:39;98381.22;;;10.17;100.00
5238;BME280;2639;49.700;7.962;2022-12-24T04:26:50;98366.75;;;10.06;100.00
5238;BME280;2639;49.700;7.962;2022-12-24T04:30:01;98379.47;;;10.04;100.00
5238;BME280;2639;49.700;7.962;2022-12-24T04:33:13;98370.69;;;10.01;100.00
5238;BME280;2639;49.700;7.962;2022-12-24T04:36:23;98377.03;;;9.94;100.00
5238;BME280;2639;49.700;7.962;2022-12-24T04:39:33;98367.09;;;9.99;100.00
5238;BME280;2639;49.700;7.962;2022-12-24T04:42:43;98369.47;;;9.96;100.00
5238;BME280;2639;49.700;7.962;2022-12-24T04:45:53;98368.22;;;9.90;100.00
5238;BME280;2639;49.700;7.962;2022-12-24T04:49:04;98368.13;;;9.89;100.00
5238;BME280;2639;49.700;7.962;2022-12-24T04:52:14;98369.78;;;9.88;100.00
5238;BME280;2639;49.700;7.962;2022-12-24T04:55:24;98369.69;;;9.87;100.00
5238;BME280;2639;49.700;7.962;2022-12-24T04:58:34;98371.72;;;9.91;100.00
5238;BME280;2639;49.700;7.962;2022-12-24T05:01:44;98368.34;;;9.92;100.00
5238;BME280;2639;49.700;7.962;2022-12-24T05:04:56;98369.69;;;9.87;100.00
5238;BME280;2639;49.700;7.962;2022-12-24T05:08:06;98375.50;;;9.84;100.00
5238;BME280;2639;49.700;7.962;2022-12-24T05:11:16;98375.06;;;9.78;100.00
5238;BME280;2639;49.700;7.962;2022-12-24T05:14:27;98371.06;;;9.70;100.00
5238;BME280;2639;49.700;7.962;2022-12-24T05:17:37;98383.09;;;9.71;100.00
5238;BME280;2639;49.700;7.962;2022-12-24T05:20:49;98382.75;;;9.66;100.00
5238;BME280;2639;49.700;7.962;2022-12-24T05:23:59;98376.63;;;9.64;100.00
5238;BME280;2639;49.700;7.962;2022-12-24T05:27:20;98375.53;;;9.61;100.00
5238;BME280;2639;49.700;7.962;2022-12-24T05:30:31;98389.66;;;9.56;100.00
5238;BME280;2639;49.700;7.962;2022-12-24T05:33:41;98399.38;;;9.60;100.00
5238;BME280;2639;49.700;7.962;2022-12-24T05:36:52;98405.63;;;9.63;100.00
5238;BME280;2639;49.700;7.962;2022-12-24T05:40:02;98399.38;;;9.60;100.00
5238;BME280;2639;49.700;7.962;2022-12-24T05:43:12;98389.66;;;9.56;100.00
5238;BME280;2639;49.700;7.962;2022-12-24T05:46:24;98401.16;;;9.61;100.00
5238;BME280;2639;49.700;7.962;2022-12-24T05:49:34;98400.50;;;9.63;100.00
5238;BME280;2639;49.700;7.962;2022-12-24T05:52:47;98392.47;;;9.59;100.00
5238;BME280;2639;49.700;7.962;2022-12-24T05:56:02;98384.88;;;9.48;100.00
5238;BME280;2639;49.700;7.962;2022-12-24T05:59:13;98393.34;;;9.47;100.00
5238;BME280;2639;49.700;7.962;2022-12-24T07:39:04;98497.44;;;9.81;100.00
5238;BME280;2639;49.700;7.962;2022-12-24T07:42:14;98499.47;;;9.85;100.00
5238;BME280;2639;49.700;7.962;2022-12-24T07:45:25;98501.03;;;9.95;100.00
5238;BME280;2639;49.700;7.962;2022-12-24T07:48:35;98495.22;;;9.97;100.00
5238;BME280;2639;49.700;7.962;2022-12-24T07:51:45;98499.69;;;10.00;100.00
5238;BME280;2639;49.700;7.962;2022-12-24T07:54:57;98520.44;;;9.91;100.00
5238;BME280;2639;49.700;7.962;2022-12-24T07:58:07;98522.22;;;9.92;100.00
5238;BME280;2639;49.700;7.962;2022-12-24T08:01:17;98526.66;;;9.95;100.00
5238;BME280;2639;49.700;7.962;2022-12-24T08:04:30;98524.09;;;9.95;100.00
5238;BME280;2639;49.700;7.962;2022-12-24T08:07:40;98538.75;;;10.07;100.00
5238;BME280;2639;49.700;7.962;2022-12-24T08:10:52;98549.56;;;10.15;100.00
5238;BME280;2639;49.700;7.962;2022-12-24T08:14:02;98549.56;;;10.15;100.00
5238;BME280;2639;49.700;7.962;2022-12-24T08:17:12;98554.34;;;10.22;100.00
5238;BME280;2639;49.700;7.962;2022-12-24T08:20:22;98550.78;;;10.20;100.00
5238;BME280;2639;49.700;7.962;2022-12-24T08:23:32;98539.44;;;10.28;100.00
5238;BME280;2639;49.700;7.962;2022-12-24T08:26:44;98536.38;;;10.22;100.00
5238;BME280;2639;49.700;7.962;2022-12-24T08:29:54;98554.13;;;10.19;100.00
5238;BME280;2639;49.700;7.962;2022-12-24T08:33:04;98546.09;;;10.26;100.00
5238;BME280;2639;49.700;7.962;2022-12-24T08:36:14;98534.50;;;10.20;100.00
5238;BME280;2639;49.700;7.962;2022-12-24T08:39:24;98540.44;;;10.30;100.00
5238;BME280;2639;49.700;7.962;2022-12-24T08:42:35;98550.78;;;10.44;100.00
5238;BME280;2639;49.700;7.962;2022-12-24T08:45:46;98541.09;;;10.40;100.00
5238;BME280;2639;49.700;7.962;2022-12-24T08:48:57;98554.59;;;10.61;100.00
5238;BME280;2639;49.700;7.962;2022-12-24T08:52:07;98553.31;;;10.67;100.00
5238;BME280;2639;49.700;7.962;2022-12-24T08:55:17;98564.00;;;10.85;100.00
5238;BME280;2639;49.700;7.962;2022-12-24T08:58:29;98568.25;;;10.85;100.00
5238;BME280;2639;49.700;7.962;2022-12-24T09:01:40;98567.91;;;10.92;100.00
5238;BME280;2639;49.700;7.962;2022-12-24T09:04:50;98573.06;;;11.17;100.00
5238;BME280;2639;49.700;7.962;2022-12-24T09:08:00;98579.44;;;11.47;100.00
5238;BME280;2639;49.700;7.962;2022-12-24T09:11:12;98589.41;;;11.81;99.50
5238;BME280;2639;49.700;7.962;2022-12-24T09:14:24;98591.66;;;11.88;96.30
5238;BME280;2639;49.700;7.962;2022-12-24T09:17:35;98589.72;;;12.11;95.56
5238;BME280;2639;49.700;7.962;2022-12-24T09:20:45;98582.69;;;12.08;93.98
5238;BME280;2639;49.700;7.962;2022-12-24T09:24:02;98591.91;;;12.05;93.25
5238;BME280;2639;49.700;7.962;2022-12-24T09:27:13;98592.28;;;11.97;92.89
5238;BME280;2639;49.700;7.962;2022-12-24T09:30:24;98597.22;;;11.94;93.67
5238;BME280;2639;49.700;7.962;2022-12-24T09:33:36;98603.16;;;11.93;93.26
5238;BME280;2639;49.700;7.962;2022-12-24T09:36:47;98604.16;;;11.95;93.42
5238;BME280;2639;49.700;7.962;2022-12-24T09:39:57;98606.22;;;12.01;92.60
5238;BME280;2639;49.700;7.962;2022-12-24T09:43:13;98616.03;;;12.07;92.64
5238;BME280;2639;49.700;7.962;2022-12-24T09:46:29;98617.03;;;12.09;92.37
5238;BME280;2639;49.700;7.962;2022-12-24T09:49:42;98612.09;;;12.12;91.60
5238;BME280;2639;49.700;7.962;2022-12-24T09:52:54;98612.50;;;12.18;90.69
5238;BME280;2639;49.700;7.962;2022-12-24T09:56:10;98621.81;;;12.29;90.98
5238;BME280;2639;49.700;7.962;2022-12-24T09:59:24;98626.06;;;12.55;89.74
5238;BME280;2639;49.700;7.962;2022-12-24T10:02:37;98633.34;;;12.74;88.57
5238;BME280;2639;49.700;7.962;2022-12-24T10:05:58;98627.47;;;12.77;88.53
5238;BME280;2639;49.700;7.962;2022-12-24T10:09:16;98627.97;;;12.71;87.92
5238;BME280;2639;49.700;7.962;2022-12-24T10:12:35;98623.03;;;12.74;87.85
5238;BME280;2639;49.700;7.962;2022-12-24T10:15:59;98623.41;;;12.80;88.02
5238;BME280;2639;49.700;7.962;2022-12-24T10:19:17;98623.03;;;12.74;87.63
5238;BME280;2639;49.700;7.962;2022-12-24T10:22:36;98643.22;;;12.95;86.31
5238;BME280;2639;49.700;7.962;2022-12-24T10:25:59;98634.28;;;12.90;86.02
5238;BME280;2639;49.700;7.962;2022-12-24T10:29:14;98636.47;;;12.97;85.39
5238;BME280;2639;49.700;7.962;2022-12-24T10:32:30;98639.03;;;13.10;85.13
5238;BME280;2639;49.700;7.962;2022-12-24T10:35:45;98635.06;;;13.29;84.67
5238;BME280;2639;49.700;7.962;2022-12-24T10:38:57;98641.78;;;13.26;84.16
5238;BME280;2639;49.700;7.962;2022-12-24T10:42:08;98648.94;;;13.04;85.06
5238;BME280;2639;49.700;7.962;2022-12-24T10:45:26;98654.91;;;12.90;86.59
5238;BME280;2639;49.700;7.962;2022-12-24T10:48:43;98671.78;;;12.58;87.93
5238;BME280;2639;49.700;7.962;2022-12-24T10:52:03;98666.22;;;12.65;88.62
5238;BME280;2639;49.700;7.962;2022-12-24T10:55:21;98662.03;;;12.40;89.68
5238;BME280;2639;49.700;7.962;2022-12-24T10:58:32;98660.03;;;12.36;91.36
5238;BME280;2639;49.700;7.962;2022-12-24T11:01:45;98662.00;;;12.27;91.24
5238;BME280;2639;49.700;7.962;2022-12-24T11:04:57;98668.53;;;12.22;92.91
5238;BME280;2639;49.700;7.962;2022-12-24T11:08:15;98672.69;;;12.20;93.42
5238;BME280;2639;49.700;7.962;2022-12-24T11:11:25;98671.88;;;12.08;96.25
5238;BME280;2639;49.700;7.962;2022-12-24T11:14:43;98678.28;;;12.01;97.25
5238;BME280;2639;49.700;7.962;2022-12-24T11:17:54;98676.13;;;12.07;99.33
5238;BME280;2639;49.700;7.962;2022-12-24T11:21:05;98688.13;;;12.20;99.74
5238;BME280;2639;49.700;7.962;2022-12-24T11:24:25;98679.72;;;12.09;100.00
5238;BME280;2639;49.700;7.962;2022-12-24T11:27:41;98674.88;;;11.89;100.00
5238;BME280;2639;49.700;7.962;2022-12-24T11:30:59;98677.78;;;11.82;100.00
5238;BME280;2639;49.700;7.962;2022-12-24T11:34:21;98668.84;;;11.76;100.00
5238;BME280;2639;49.700;7.962;2022-12-24T11:37:32;98670.69;;;11.66;100.00
5238;BME280;2639;49.700;7.962;2022-12-24T11:40:45;98670.47;;;11.63;100.00
5238;BME280;2639;49.700;7.962;2022-12-24T11:43:59;98674.53;;;11.59;100.00
5238;BME280;2639;49.700;7.962;2022-12-24T11:47:12;98670.09;;;11.45;100.00
5238;BME280;2639;49.700;7.962;2022-12-24T11:50:26;98671.03;;;11.33;100.00
5238;BME280;2639;49.700;7.962;2022-12-24T11:53:40;98662.78;;;11.26;100.00
5238;BME280;2639;49.700;7.962;2022-12-24T11:56:56;98669.50;;;11.24;100.00
5238;BME280;2639;49.700;7.962;2022-12-24T12:00:09;98660.22;;;11.26;100.00
5238;BME280;2639;49.700;7.962;2022-12-24T12:03:28;98660.78;;;11.22;100.00
5238;BME280;2639;49.700;7.962;2022-12-24T12:06:43;98665.38;;;11.14;100.00
5238;BME280;2639;49.700;7.962;2022-12-24T12:09:58;98667.97;;;11.14;100.00
5238;BME280;2639;49.700;7.962;2022-12-24T12:13:12;98664.13;;;11.21;100.00
5238;BME280;2639;49.700;7.962;2022-12-24T12:16:28;98669.53;;;11.37;100.00
5238;BME280;2639;49.700;7.962;2022-12-24T12:20:10;98670.47;;;11.63;100.00
5238;BME280;2639;49.700;7.962;2022-12-24T12:23:24;98670.47;;;11.63;100.00
5238;BME280;2639;49.700;7.962;2022-12-24T12:26:40;98667.75;;;11.73;100.00
5238;BME280;2639;49.700;7.962;2022-12-24T12:29:56;98666.88;;;11.72;100.00
5238;BME280;2639;49.700;7.962;2022-12-24T12:33:15;98673.22;;;11.77;100.00
5238;BME280;2639;49.700;7.962;2022-12-24T12:36:32;98673.91;;;11.75;100.00
5238;BME280;2639;49.700;7.962;2022-12-24T12:39:44;98682.88;;;11.68;100.00
5238;BME280;2639;49.700;7.962;2022-12-24T12:43:02;98668.25;;;11.55;100.00
5238;BME280;2639;49.700;7.962;2022-12-24T12:46:29;98663.56;;;11.62;100.00
5238;BME280;2639;49.700;7.962;2022-12-24T12:49:46;98669.41;;;11.47;100.00
5238;BME280;2639;49.700;7.962;2022-12-24T12:53:23;98673.91;;;11.38;100.00
5238;BME280;2639;49.700;7.962;2022-12-24T12:56:40;98676.94;;;11.44;100.00
5238;BME280;2639;49.700;7.962;2022-12-24T12:59:57;98669.91;;;11.30;100.00
5238;BME280;2639;49.700;7.962;2022-12-24T13:03:27;98678.19;;;11.37;100.00
5238;BME280;2639;49.700;7.962;2022-12-24T13:06:57;98685.69;;;11.59;100.00
5238;BME280;2639;49.700;7.962;2022-12-24T13:10:25;98686.59;;;11.85;100.00
5238;BME280;2639;49.700;7.962;2022-12-24T13:13:53;98682.53;;;12.00;100.00
5238;BME280;2639;49.700;7.962;2022-12-24T13:17:20;98687.75;;;12.27;100.00
5238;BME280;2639;49.700;7.962;2022-12-24T13:20:41;98684.81;;;12.48;100.00
5238;BME280;2639;49.700;7.962;2022-12-24T13:24:04;98691.69;;;12.60;100.00
5238;BME280;2639;49.700;7.962;2022-12-24T13:27:17;98680.19;;;12.69;100.00
5238;BME280;2639;49.700;7.962;2022-12-24T13:30:34;98685.44;;;12.70;100.00
5238;BME280;2639;49.700;7.962;2022-12-24T13:33:46;98679.09;;;12.65;100.00
5238;BME280;2639;49.700;7.962;2022-12-24T13:37:04;98681.28;;;12.59;100.00
5238;BME280;2639;49.700;7.962;2022-12-24T13:40:16;98695.69;;;12.43;100.00
5238;BME280;2639;49.700;7.962;2022-12-24T13:44:01;98706.38;;;12.23;100.00
5238;BME280;2639;49.700;7.962;2022-12-24T13:47:16;98707.28;;;11.87;100.00
5238;BME280;2639;49.700;7.962;2022-12-24T13:50:37;98689.06;;;11.58;100.00
5238;BME280;2639;49.700;7.962;2022-12-24T13:53:56;98692.47;;;11.34;100.00
5238;BME280;2639;49.700;7.962;2022-12-24T13:57:22;98694.28;;;11.35;100.00
5238;BME280;2639;49.700;7.962;2022-12-24T14:00:41;98695.19;;;11.24;100.00
5238;BME280;2639;49.700;7.962;2022-12-24T14:03:55;98722.91;;;11.04;100.00
5238;BME280;2639;49.700;7.962;2022-12-24T14:07:07;98734.31;;;11.08;100.00
5238;BME280;2639;49.700;7.962;2022-12-24T14:10:23;98721.13;;;11.03;100.00
5238;BME280;2639;49.700;7.962;2022-12-24T14:13:49;98721.81;;;11.01;100.00
5238;BME280;2639;49.700;7.962;2022-12-24T14:17:01;98719.78;;;10.97;100.00
5238;BME280;2639;49.700;7.962;2022-12-24T14:20:13;98714.66;;;10.97;100.00
5238;BME280;2639;49.700;7.962;2022-12-24T14:23:32;98716.66;;;11.01;100.00
5238;BME280;2639;49.700;7.962;2022-12-24T14:30:25;98711.75;;;10.92;100.00
5238;BME280;2639;49.700;7.962;2022-12-24T14:33:35;98717.56;;;10.89;100.00
5238;BME280;2639;49.700;7.962;2022-12-24T14:37:11;98713.44;;;10.91;100.00
5238;BME280;2639;49.700;7.962;2022-12-24T14:40:47;98715.31;;;10.94;100.00
5238;BME280;2639;49.700;7.962;2022-12-24T14:44:26;98713.75;;;10.96;100.00
5238;BME280;2639;49.700;7.962;2022-12-24T14:47:48;98723.59;;;10.90;100.00
5238;BME280;2639;49.700;7.962;2022-12-24T14:51:09;98721.81;;;10.89;100.00
5238;BME280;2639;49.700;7.962;2022-12-24T14:54:32;98721.00;;;10.90;100.00
5238;BME280;2639;49.700;7.962;2022-12-24T14:57:54;98725.16;;;10.88;100.00
5238;BME280;2639;49.700;7.962;2022-12-24T15:01:38;98727.28;;;10.82;100.00
5238;BME280;2639;49.700;7.962;2022-12-24T15:05:07;98731.16;;;10.77;100.00
5238;BME280;2639;49.700;7.962;2022-12-24T15:08:22;98730.72;;;10.70;100.00
5238;BME280;2639;49.700;7.962;2022-12-24T15:11:34;98735.41;;;10.64;100.00
5238;BME280;2639;49.700;7.962;2022-12-24T15:14:45;98736.75;;;10.59;100.00
5238;BME280;2639;49.700;7.962;2022-12-24T15:17:57;98741.19;;;10.50;100.00
5238;BME280;2639;49.700;7.962;2022-12-24T15:21:15;98745.41;;;10.38;100.00
5238;BME280;2639;49.700;7.962;2022-12-24T15:24:29;98746.50;;;10.29;100.00
5238;BME280;2639;49.700;7.962;2022-12-24T15:27:40;98753.81;;;10.25;100.00
5238;BME280;2639;49.700;7.962;2022-12-24T15:31:04;98757.34;;;10.15;100.00
5238;BME280;2639;49.700;7.962;2022-12-24T15:34:29;98768.47;;;10.04;100.00
5238;BME280;2639;49.700;7.962;2022-12-24T15:37:56;98770.69;;;9.99;100.00
5238;BME280;2639;49.700;7.962;2022-12-24T15:41:19;98776.59;;;9.98;100.00
5238;BME280;2639;49.700;7.962;2022-12-24T15:44:40;98777.13;;;9.94;100.00
5238;BME280;2639;49.700;7.962;2022-12-24T15:48:08;98779.34;;;9.89;100.00
5238;BME280;2639;49.700;7.962;2022-12-24T15:51:48;98793.03;;;9.90;100.00
5238;BME280;2639;49.700;7.962;2022-12-24T15:55:24;98789.38;;;9.86;100.00
5238;BME280;2639;49.700;7.962;2022-12-24T15:58:37;98788.56;;;9.87;100.00
5238;BME280;2639;49.700;7.962;2022-12-24T16:01:49;98790.91;;;9.84;100.00
5238;BME280;2639;49.700;7.962;2022-12-24T16:05:16;98793.28;;;9.71;100.00
5238;BME280;2639;49.700;7.962;2022-12-24T16:08:30;98791.25;;;9.67;100.00
5238;BME280;2639;49.700;7.962;2022-12-24T16:11:57;98799.22;;;9.60;100.00
5238;BME280;2639;49.700;7.962;2022-12-24T16:15:16;98799.00;;;9.57;100.00
5238;BME280;2639;49.700;7.962;2022-12-24T16:18:30;98788.22;;;9.61;100.00
5238;BME280;2639;49.700;7.962;2022-12-24T16:21:41;98783.19;;;9.62;100.00
5238;BME280;2639;49.700;7.962;2022-12-24T16:24:53;98782.31;;;9.62;100.00
5238;BME280;2639;49.700;7.962;2022-12-24T16:28:06;98778.22;;;9.54;100.00
5238;BME280;2639;49.700;7.962;2022-12-24T16:31:35;98778.53;;;9.46;100.00
5238;BME280;2639;49.700;7.962;2022-12-24T16:34:50;98789.06;;;9.39;100.00
5238;BME280;2639;49.700;7.962;2022-12-24T16:42:56;98801.91;;;9.29;100.00
5238;BME280;2639;49.700;7.962;2022-12-24T16:49:50;98807.28;;;9.32;100.00
5238;BME280;2639;49.700;7.962;2022-12-24T16:53:00;98816.00;;;9.34;100.00
5238;BME280;2639;49.700;7.962;2022-12-24T16:56:10;98818.53;;;9.34;100.00
5238;BME280;2639;49.700;7.962;2022-12-24T16:59:22;98809.09;;;9.33;100.00
5238;BME280;2639;49.700;7.962;2022-12-24T17:02:33;98810.63;;;9.31;100.00
5238;BME280;2639;49.700;7.962;2022-12-24T17:05:43;98813.94;;;9.30;100.00
5238;BME280;2639;49.700;7.962;2022-12-24T17:08:53;98811.66;;;9.23;100.00
5238;BME280;2639;49.700;7.962;2022-12-24T17:12:03;98820.78;;;9.19;100.00
5238;BME280;2639;49.700;7.962;2022-12-24T17:15:14;98824.50;;;9.13;100.00
5238;BME280;2639;49.700;7.962;2022-12-24T17:18:24;98826.03;;;9.11;100.00
5238;BME280;2639;49.700;7.962;2022-12-24T17:21:34;98827.59;;;9.09;100.00
5238;BME280;2639;49.700;7.962;2022-12-24T17:24:44;98818.63;;;9.03;100.00
5238;BME280;2639;49.700;7.962;2022-12-24T17:27:54;98834.25;;;9.06;100.00
5238;BME280;2639;49.700;7.962;2022-12-24T17:31:07;98835.03;;;9.05;100.00
5238;BME280;2639;49.700;7.962;2022-12-24T17:34:16;98837.84;;;8.98;100.00
5238;BME280;2639;49.700;7.962;2022-12-24T17:37:26;98842.06;;;8.98;100.00
5238;BME280;2639;49.700;7.962;2022-12-24T17:40:36;98840.16;;;8.95;100.00
5238;BME280;2639;49.700;7.962;2022-12-24T17:43:48;98835.03;;;8.95;100.00
5238;BME280;2639;49.700;7.962;2022-12-24T17:47:00;98833.50;;;8.97;100.00
5238;BME280;2639;49.700;7.962;2022-12-24T17:50:12;98830.28;;;9.00;100.00
5238;BME280;2639;49.700;7.962;2022-12-24T17:53:22;98823.47;;;9.00;100.00
5238;BME280;2639;49.700;7.962;2022-12-24T17:56:32;98823.47;;;9.00;100.00
5238;BME280;2639;49.700;7.962;2022-12-24T17:59:42;98830.19;;;8.98;100.00
5238;BME280;2639;49.700;7.962;2022-12-24T18:02:53;98828.38;;;8.97;100.00
5238;BME280;2639;49.700;7.962;2022-12-24T18:06:04;98826.06;;;8.90;100.00
5238;BME280;2639;49.700;7.962;2022-12-24T18:09:14;98828.66;;;8.80;100.00
5238;BME280;2639;49.700;7.962;2022-12-24T18:12:26;98827.22;;;8.83;100.00
5238;BME280;2639;49.700;7.962;2022-12-24T18:15:37;98835.78;;;8.84;100.00
5238;BME280;2639;49.700;7.962;2022-12-24T18:18:50;98826.59;;;8.86;100.00
5238;BME280;2639;49.700;7.962;2022-12-24T18:22:00;98830.69;;;8.84;100.00
5238;BME280;2639;49.700;7.962;2022-12-24T18:25:10;98825.56;;;8.84;100.00
5238;BME280;2639;49.700;7.962;2022-12-24T18:28:23;98830.94;;;8.87;100.00
5238;BME280;2639;49.700;7.962;2022-12-24T18:31:33;98835.78;;;8.84;100.00
5238;BME280;2639;49.700;7.962;2022-12-24T18:34:44;98833.78;;;8.80;100.00
5238;BME280;2639;49.700;7.962;2022-12-24T18:37:54;98826.38;;;8.73;100.00
5238;BME280;2639;49.700;7.962;2022-12-24T18:41:05;98825.44;;;8.72;100.00
5238;BME280;2639;49.700;7.962;2022-12-24T18:44:15;98830.94;;;8.77;100.00
5238;BME280;2639;49.700;7.962;2022-12-24T18:47:32;98832.84;;;8.79;100.00
5238;BME280;2639;49.700;7.962;2022-12-24T18:50:53;98828.66;;;8.80;100.00
5238;BME280;2639;49.700;7.962;2022-12-24T18:54:05;98829.41;;;8.79;100.00
5238;BME280;2639;49.700;7.962;2022-12-24T18:57:16;98830.84;;;8.75;100.00
5238;BME280;2639;49.700;7.962;2022-12-24T19:00:26;98834.28;;;8.76;100.00
5238;BME280;2639;49.700;7.962;2022-12-24T19:03:36;98853.09;;;8.76;100.00
5238;BME280;2639;49.700;7.962;2022-12-24T19:06:47;98852.44;;;8.79;100.00
5238;BME280;2639;49.700;7.962;2022-12-24T19:10:01;98848.88;;;8.77;100.00
5238;BME280;2639;49.700;7.962;2022-12-24T19:13:11;98854.63;;;8.74;100.00
5238;BME280;2639;49.700;7.962;2022-12-24T19:16:20;98856.44;;;8.75;100.00
5238;BME280;2639;49.700;7.962;2022-12-24T19:19:30;98855.16;;;8.80;100.00
5238;BME280;2639;49.700;7.962;2022-12-24T19:22:41;98850.28;;;8.83;100.00
5238;BME280;2639;49.700;7.962;2022-12-24T19:25:51;98849.38;;;8.83;100.00
5238;BME280;2639;49.700;7.962;2022-12-24T19:29:01;98840.69;;;8.81;100.00
5238;BME280;2639;49.700;7.962;2022-12-24T19:32:10;98835.81;;;8.74;100.00
5238;BME280;2639;49.700;7.962;2022-12-24T19:35:20;98848.38;;;8.71;100.00
5238;BME280;2639;49.700;7.962;2022-12-24T19:38:32;98851.97;;;8.73;100.00
5238;BME280;2639;49.700;7.962;2022-12-24T19:41:42;98863.09;;;8.73;100.00
5238;BME280;2639;49.700;7.962;2022-12-24T19:44:51;98868.06;;;8.72;100.00
5238;BME280;2639;49.700;7.962;2022-12-24T19:48:02;98884.06;;;8.69;100.00
5238;BME280;2639;49.700;7.962;2022-12-24T19:51:11;98893.66;;;8.72;100.00
5238;BME280;2639;49.700;7.962;2022-12-24T19:54:23;98891.88;;;8.71;100.00
5238;BME280;2639;49.700;7.962;2022-12-24T19:57:32;98909.28;;;8.75;100.00
5238;BME280;2639;49.700;7.962;2022-12-24T20:00:42;98907.00;;;8.78;100.00
5238;BME280;2639;49.700;7.962;2022-12-24T20:03:52;98907.88;;;8.78;100.00
5238;BME280;2639;49.700;7.962;2022-12-24T20:07:03;98902.13;;;8.81;100.00
5238;BME280;2639;49.700;7.962;2022-12-24T20:10:14;98908.53;;;8.76;100.00
5238;BME280;2639;49.700;7.962;2022-12-24T20:13:23;98902.50;;;8.75;100.00
5238;BME280;2639;49.700;7.962;2022-12-24T20:16:34;98899.03;;;8.75;100.00
5238;BME280;2639;49.700;7.962;2022-12-24T20:19:44;98891.63;;;8.78;100.00
5238;BME280;2639;49.700;7.962;2022-12-24T20:22:57;98888.94;;;8.76;100.00
5238;BME280;2639;49.700;7.962;2022-12-24T20:26:11;98880.88;;;8.72;100.00
5238;BME280;2639;49.700;7.962;2022-12-24T20:29:21;98867.56;;;8.76;100.00
5238;BME280;2639;49.700;7.962;2022-12-24T20:32:31;98871.78;;;8.75;100.00
5238;BME280;2639;49.700;7.962;2022-12-24T20:35:41;98868.44;;;8.76;100.00
5238;BME280;2639;49.700;7.962;2022-12-24T20:38:51;98864.75;;;8.73;100.00
5238;BME280;2639;49.700;7.962;2022-12-24T20:42:02;98867.81;;;8.69;100.00
5238;BME280;2639;49.700;7.962;2022-12-24T20:45:12;98870.75;;;8.63;100.00
5238;BME280;2639;49.700;7.962;2022-12-24T20:48:22;98872.91;;;8.58;100.00
5238;BME280;2639;49.700;7.962;2022-12-24T20:51:32;98870.34;;;8.58;100.00
5238;BME280;2639;49.700;7.962;2022-12-24T20:54:42;98874.47;;;8.56;100.00
5238;BME280;2639;49.700;7.962;2022-12-24T20:57:53;98881.38;;;8.57;100.00
5238;BME280;2639;49.700;7.962;2022-12-24T21:01:07;98879.31;;;8.53;100.00
5238;BME280;2639;49.700;7.962;2022-12-24T21:04:17;98886.75;;;8.50;100.00
5238;BME280;2639;49.700;7.962;2022-12-24T21:07:27;98886.75;;;8.50;100.00
5238;BME280;2639;49.700;7.962;2022-12-24T21:10:37;98890.69;;;8.47;100.00
5238;BME280;2639;49.700;7.962;2022-12-24T21:13:49;98883.66;;;8.44;100.00
5238;BME280;2639;49.700;7.962;2022-12-24T21:16:57;98884.53;;;8.45;100.00
5238;BME280;2639;49.700;7.962;2022-12-24T21:20:08;98874.19;;;8.43;100.00
5238;BME280;2639;49.700;7.962;2022-12-24T21:23:18;98885.06;;;8.40;100.00
5238;BME280;2639;49.700;7.962;2022-12-24T21:26:28;98870.44;;;8.39;100.00
5238;BME280;2639;49.700;7.962;2022-12-24T21:29:39;98871.72;;;8.34;100.00
5238;BME280;2639;49.700;7.962;2022-12-24T21:32:49;98857.00;;;8.32;100.00
5238;BME280;2639;49.700;7.962;2022-12-24T21:35:58;98856.38;;;8.34;100.00
5238;BME280;2639;49.700;7.962;2022-12-24T21:39:08;98859.81;;;8.35;100.00
5238;BME280;2639;49.700;7.962;2022-12-24T21:42:18;98860.31;;;8.31;100.00
5238;BME280;2639;49.700;7.962;2022-12-24T21:45:29;98853.41;;;8.30;100.00
5238;BME280;2639;49.700;7.962;2022-12-24T21:48:39;98842.41;;;8.31;100.00
5238;BME280;2639;49.700;7.962;2022-12-24T21:52:00;98832.31;;;8.32;100.00
5238;BME280;2639;49.700;7.962;2022-12-24T21:55:10;98816.06;;;8.32;100.00
5238;BME280;2639;49.700;7.962;2022-12-24T21:58:21;98813.66;;;8.33;100.00
5238;BME280;2639;49.700;7.962;2022-12-24T22:01:32;98819.38;;;8.31;100.00
5238;BME280;2639;49.700;7.962;2022-12-24T22:04:42;98827.97;;;8.31;100.00
5238;BME280;2639;49.700;7.962;2022-12-24T22:07:53;98837.94;;;8.28;100.00
5238;BME280;2639;49.700;7.962;2022-12-24T22:11:14;98841.13;;;8.26;100.00
5238;BME280;2639;49.700;7.962;2022-12-24T22:14:35;98839.75;;;8.29;100.00
5238;BME280;2639;49.700;7.962;2022-12-24T22:17:46;98837.94;;;8.28;100.00
5238;BME280;2639;49.700;7.962;2022-12-24T22:20:55;98839.25;;;8.33;100.00
5238;BME280;2639;49.700;7.962;2022-12-24T22:24:06;98838.59;;;8.36;100.00
5238;BME280;2639;49.700;7.962;2022-12-24T22:27:16;98841.66;;;8.32;100.00
5238;BME280;2639;49.700;7.962;2022-12-24T22:30:26;98852.03;;;8.33;100.00
5238;BME280;2639;49.700;7.962;2022-12-24T22:33:37;98862.13;;;8.32;100.00
5238;BME280;2639;49.700;7.962;2022-12-24T22:36:46;98859.41;;;8.30;100.00
5238;BME280;2639;49.700;7.962;2022-12-24T22:39:56;98862.63;;;8.28;100.00
5238;BME280;2639;49.700;7.962;2022-12-24T22:43:06;98846.53;;;8.29;100.00
5238;BME280;2639;49.700;7.962;2022-12-24T22:46:16;98850.31;;;8.23;100.00
5238;BME280;2639;49.700;7.962;2022-12-24T22:49:27;98844.97;;;8.31;100.00
5238;BME280;2639;49.700;7.962;2022-12-24T22:52:37;98852.41;;;8.38;100.00
5238;BME280;2639;49.700;7.962;2022-12-24T22:55:53;98865.31;;;8.39;100.00
5238;BME280;2639;49.700;7.962;2022-12-24T22:59:03;98874.19;;;8.43;100.00
5238;BME280;2639;49.700;7.962;2022-12-24T23:02:13;98861.66;;;8.46;100.00
5238;BME280;2639;49.700;7.962;2022-12-24T23:05:26;98869.47;;;8.48;100.00
5238;BME280;2639;49.700;7.962;2022-12-24T23:08:36;98859.50;;;8.51;100.00
5238;BME280;2639;49.700;7.962;2022-12-24T23:11:46;98858.84;;;8.53;100.00
5238;BME280;2639;49.700;7.962;2022-12-24T23:14:56;98854.00;;;8.56;100.00
5238;BME280;2639;49.700;7.962;2022-12-24T23:18:06;98859.13;;;8.56;100.00